x

Orange Beach - 44 Nm Se Of Mobile, Al (42012) Wave Buoy

5:50am - Wed 5th Aug 2015 All times are CDT. -5 hours from GMT.

  • Sig Wave height 2.6ft
  • Swell Direction
  • Peak Period 5s
  • Average Period 4s
  • Wind
    16mph, 18mph gusts
  • Sea Temp 86°f
  • Air Temp 86°f
  • Sea Pressure 1015.6mb
  • Orange Beach - 44 Nm Se Of Mobile, Al
  • Orange Beach - 44 Nm Se Of Mobile, Al

More Historic Weather Station data

Upgrade to MSW Pro to gain access to the past 30 days of data for over 8000 Wavebouys and Weather Stations around the globe.

Join Pro

Comparision Forecast

View Surf forecast
   
Wed 08/05 5:50am 2.5ft 5s 4s 16 18 mph 1015.6mb 86f 86f
4:50am 2.5ft 4s 4s 13 16 mph 1015.4mb 86f 86f
3:50am 2.5ft 4s 4s 13 16 mph 1015.5mb 86f 85f
2:50am 2.5ft 4s 4s 13 16 mph 1015.4mb 86f 85f
1:50am 2.5ft 4s 4s 16 18 mph 1015.5mb 86f 85f
12:50am 2.5ft 4s 4s 16 18 mph 1015.8mb 86f 85f
Tue 08/04 11:50pm 2ft 4s 4s 13 16 mph 1016.4mb 87f 86f
10:50pm 2ft 4s 3s 16 18 mph 1015.9mb 87f 85f
9:50pm 2ft 4s 3s 16 18 mph 1015.5mb 87f 85f
8:50pm 1.6ft 4s 3s 13 18 mph 1015.1mb 87f 85f
7:50pm 1.6ft 4s 3s 13 16 mph 1015mb 87f 85f
6:50pm 2ft 4s 4s 13 16 mph 1014.8mb 87f 85f
5:50pm 2.5ft 4s 4s 13
mph
1014.5mb 87f 85f
4:50pm 2.5ft 5s 4s 11
mph
1014.6mb 87f 85f
3:50pm 2ft 5s 4s 13 18 mph 1015mb 87f 83f
2:50pm 2ft 3s 3s 25 31 mph 1015.1mb 87f 80f
1:50pm 2ft 4s 3s 18 22 mph 1016.2mb 87f 81f
12:50pm 1.3ft 4s 4s 16 20 mph 1016.1mb 87f 84f
11:50am 1.3ft 4s 4s 2
mph
1016.1mb 87f 86f
10:50am 1.3ft 4s 4s 2
mph
1015.9mb 87f 84f
9:50am 1.6ft 4s 4s 4 7 mph 1015.6mb 86f 84f
8:50am 1.6ft 4s 4s 7 9 mph 1015.3mb 86f 84f
7:50am 1.3ft 4s 3s 9 11 mph 1014.9mb 86f 85f
6:50am 1.6ft 4s 4s 7 9 mph 1014.5mb 86f 85f
5:50am 1.3ft 3s 4s 11 13 mph 1014.1mb 86f 85f
4:50am 1.6ft 4s 4s 9 11 mph 1013.5mb 86f 85f
3:50am 1.6ft 5s 4s 9 11 mph 1013.1mb 86f 85f
2:50am 1.6ft 6s 4s 11 13 mph 1012.8mb 86f 85f
1:50am 2ft 5s 4s 9 11 mph 1012.8mb 87f 85f
12:50am 2.5ft 6s 4s 9 11 mph 1012.8mb 87f 85f
Mon 08/03 11:50pm 2.5ft 6s 4s 9 11 mph 1012.8mb 87f 85f
10:50pm 2.5ft 6s 4s 11 13 mph 1012.8mb 87f 85f
9:50pm 2.5ft 6s 4s 11 13 mph 1012.3mb 87f 85f
8:50pm 2.5ft 5s 4s 11 13 mph 1011.7mb 87f 85f
7:50pm 2.5ft 4s 4s 13 16 mph 1011.6mb 88f 86f
6:50pm 2.5ft 5s 4s 16 18 mph 1011.5mb 88f 85f
5:50pm 2.5ft 4s 3s 16 18 mph 1011.3mb 88f 86f
4:50pm 2.5ft 3s 3s 18 22 mph 1011.8mb 88f 86f
3:50pm 1.6ft 6s 3s 16 20 mph 1012.1mb 88f 86f
2:50pm 1.3ft 6s 3s 16 18 mph 1012.3mb 88f 86f
1:50pm 1.3ft 6s 4s 16 18 mph 1012.5mb 88f 86f
12:50pm 1.3ft 6s 4s 4
mph
1012.8mb 88f 87f
11:50am 1.3ft 5s 4s  -  2 mph 1012.5mb 87f 86f
10:50am 1.3ft 6s 4s 4
mph
1012.5mb 86f 85f
9:50am 1.3ft 6s 4s 7 9 mph 1012.3mb 86f 84f
8:50am 1.6ft 6s 4s 11 13 mph 1012.1mb 86f 85f
7:50am 1.6ft 5s 4s 11 13 mph 1012mb 86f 85f
6:50am 1.6ft 4s 4s 13 16 mph 1011.7mb 86f 85f
5:50am 1.6ft 5s 4s 11 13 mph 1010.8mb 86f 85f
4:50am 2ft 4s 4s 11 13 mph 1010.3mb 86f 86f
3:50am 2ft 5s 4s 13
mph
1009.9mb 86f 86f
2:50am 2.5ft 5s 4s 11 13 mph 1009.9mb 87f 86f
1:50am 2.5ft 4s 4s 9 11 mph 1010.2mb 87f 85f
12:50am 1.6ft 4s 4s 7 9 mph 1011mb 87f 85f
Sun 08/02 11:50pm 1.6ft 3s 3s 11 13 mph 1011.2mb 87f 86f
10:50pm 1.6ft 3s 3s 16 20 mph 1010.7mb 87f 87f
9:50pm 1.3ft 3s 3s 16
mph
1011mb 88f 87f
8:50pm 1.3ft 5s 3s 13 16 mph 1010.2mb 88f 87f
7:50pm 1.3ft 5s 3s 13 18 mph 1010mb 88f 87f
6:50pm 1.3ft 5s 4s 13 16 mph 1009.9mb 89f 87f
5:50pm 1.3ft 5s 4s 9 11 mph 1010.1mb 89f 87f
4:50pm 1.3ft 5s 4s 9
mph
1010.4mb 89f 87f
3:50pm 1.3ft 5s 4s 4 7 mph 1010.2mb 89f 87f
2:50pm 1.3ft 5s 4s 4 7 mph 1010.8mb 89f 86f
1:50pm 1.6ft 5s 4s 4 7 mph 1011.4mb 89f 85f
12:50pm 1.3ft 5s 4s 2 4 mph 1012mb 88f 85f
11:50am 1.3ft 5s 4s 4 7 mph 1012mb 87f 83f
10:50am 1.3ft 3s 3s 7 9 mph 1011.8mb 86f 82f
9:50am 1.3ft 3s 3s 11 13 mph 1011.3mb 86f 82f
8:50am 1.3ft 3s 3s 13 16 mph 1011.1mb 86f 82f
7:50am 1.3ft 3s 3s 9 11 mph 1011mb 86f 82f
6:50am 1ft 8s 3s 13 16 mph 1010.3mb 86f 82f
5:50am 1ft 8s 3s 7 9 mph 1009.8mb 86f 83f
4:50am 1ft 8s 3s 11 13 mph 1009.8mb 86f 82f
3:50am 1.3ft 9s 3s 9 11 mph 1009.4mb 86f 83f
2:50am 1.3ft 9s 3s 11 13 mph 1009.5mb 86f 85f
1:50am 1ft 9s 3s 13
mph
1010mb 86f 85f
12:50am 1ft 9s 4s 11 13 mph 1010.4mb 86f 86f
Sat 08/01 11:50pm 1ft 9s 4s 11 13 mph 1010.7mb 86f 87f
10:50pm 1ft 5s 4s 9 11 mph 1010.7mb 86f 87f
9:50pm 1ft 5s 4s 13 16 mph 1010.7mb 86f 86f
8:50pm 1ft 5s 4s 9 11 mph 1010.6mb 87f 86f
7:50pm 1ft 6s 4s 9 11 mph 1010.2mb 87f 85f
6:50pm 1.3ft 4s 4s 4 7 mph 1009.8mb 87f 85f
5:50pm 1.3ft 4s 4s 7 9 mph 1010mb 88f 85f
4:50pm 1.3ft 3s 4s 7 9 mph 1009.9mb 88f 85f
3:50pm 1.3ft 4s 4s 2 4 mph 1010mb 88f 85f
2:50pm 1.3ft 4s 4s 2 4 mph 1010.8mb 87f 85f
1:50pm 1.3ft 3s 4s 4 7 mph 1011.4mb 87f 84f
12:50pm 1.3ft 5s 3s 9 11 mph 1011.8mb 86f 83f